createdAt,value
2018-12-12T00:00:31.579Z,102404.41
2018-12-12T00:03:34.763Z,102404.09
2018-12-12T00:06:38.017Z,102399.76
2018-12-12T00:09:41.191Z,102399.05
2018-12-12T00:12:44.560Z,102399.33
2018-12-12T00:15:48.811Z,102398.10
2018-12-12T00:18:52.285Z,102395.72
2018-12-12T00:21:55.519Z,102400.97
2018-12-12T00:24:58.675Z,102402.22
2018-12-12T00:28:01.835Z,102404.43
2018-12-12T00:31:05.018Z,102409.20
2018-12-12T00:34:08.218Z,102409.73
2018-12-12T00:37:11.625Z,102410.70
2018-12-12T00:40:14.807Z,102408.23
2018-12-12T00:43:17.984Z,102412.63
2018-12-12T00:46:21.189Z,102416.00
2018-12-12T00:49:24.459Z,102405.08
2018-12-12T00:52:27.641Z,102413.36
2018-12-12T00:55:30.884Z,102420.75
2018-12-12T00:58:34.040Z,102424.37
2018-12-12T01:01:38.063Z,102425.73
2018-12-12T01:04:41.226Z,102433.62
2018-12-12T01:07:44.395Z,102429.92
2018-12-12T01:10:49.554Z,102433.97
2018-12-12T01:13:52.741Z,102431.86
2018-12-12T01:16:55.925Z,102429.04
2018-12-12T01:19:59.533Z,102425.71
2018-12-12T01:23:03.202Z,102427.13
2018-12-12T01:26:06.862Z,102436.31
2018-12-12T01:29:10.531Z,102440.80
2018-12-12T01:32:13.755Z,102435.78
2018-12-12T01:35:17.298Z,102437.27
2018-12-12T01:38:21.119Z,102442.64
2018-12-12T01:41:24.270Z,102444.78
2018-12-12T01:44:27.560Z,102441.88
2018-12-12T01:47:31.363Z,102449.50
2018-12-12T01:50:34.520Z,102439.77
2018-12-12T01:53:38.571Z,102450.69
2018-12-12T01:56:41.871Z,102451.98
2018-12-12T01:59:45.105Z,102455.23
2018-12-12T02:02:48.344Z,102458.31
2018-12-12T02:05:51.550Z,102457.93
2018-12-12T02:08:54.742Z,102463.06
2018-12-12T02:11:58.001Z,102461.83
2018-12-12T02:15:01.181Z,102461.62
2018-12-12T02:18:04.490Z,102453.45
2018-12-12T02:21:07.744Z,102457.37
2018-12-12T02:24:10.978Z,102464.28
2018-12-12T02:27:14.165Z,102465.38
2018-12-12T02:30:17.848Z,102463.23
2018-12-12T02:33:21.053Z,102461.14
2018-12-12T02:36:24.470Z,102463.91
2018-12-12T02:39:27.613Z,102457.19
2018-12-12T02:42:30.798Z,102456.72
2018-12-12T02:45:33.987Z,102462.64
2018-12-12T02:48:37.193Z,102468.89
2018-12-12T02:51:40.543Z,102463.20
2018-12-12T02:54:44.291Z,102469.82
2018-12-12T02:57:47.523Z,102468.77
2018-12-12T03:00:50.707Z,102475.44
2018-12-12T03:03:53.913Z,102475.34
2018-12-12T03:06:57.093Z,102479.50
2018-12-12T03:10:00.225Z,102476.11
2018-12-12T03:13:03.458Z,102478.88
2018-12-12T03:16:07.816Z,102484.02
2018-12-12T03:19:10.972Z,102480.58
2018-12-12T03:22:14.188Z,102484.34
2018-12-12T03:25:17.937Z,102473.24
2018-12-12T03:28:21.102Z,102474.83
2018-12-12T03:31:24.259Z,102477.83
2018-12-12T03:34:27.573Z,102481.67
2018-12-12T03:37:31.402Z,102486.07
2018-12-12T03:40:35.336Z,102483.66
2018-12-12T03:43:38.500Z,102483.02
2018-12-12T03:46:43.024Z,102484.73
2018-12-12T03:49:46.203Z,102485.66
2018-12-12T03:52:49.424Z,102488.94
2018-12-12T03:55:52.622Z,102492.73
2018-12-12T03:58:55.800Z,102494.23
2018-12-12T04:01:59.106Z,102494.89
2018-12-12T04:05:02.273Z,102493.91
2018-12-12T04:08:05.523Z,102495.31
2018-12-12T04:11:10.322Z,102492.62
2018-12-12T04:14:13.611Z,102498.48
2018-12-12T04:17:16.845Z,102500.14
2018-12-12T04:20:20.007Z,102505.81
2018-12-12T04:23:24.863Z,102500.50
2018-12-12T04:26:28.020Z,102508.25
2018-12-12T04:29:31.216Z,102503.75
2018-12-12T04:32:34.460Z,102497.11
2018-12-12T04:35:37.642Z,102501.20
2018-12-12T04:38:41.276Z,102509.81
2018-12-12T04:41:44.427Z,102511.81
2018-12-12T04:44:47.614Z,102512.45
2018-12-12T04:47:51.091Z,102516.19
2018-12-12T04:50:54.333Z,102517.66
2018-12-12T04:53:57.473Z,102520.20
2018-12-12T04:57:00.685Z,102522.33
2018-12-12T05:00:04.181Z,102529.02
2018-12-12T05:03:07.352Z,102530.12
2018-12-12T05:06:10.558Z,102526.74
2018-12-12T05:09:13.727Z,102542.00
2018-12-12T05:12:16.983Z,102543.86
2018-12-12T05:15:20.136Z,102542.00
2018-12-12T05:18:23.366Z,102544.22
2018-12-12T05:21:27.196Z,102539.84
2018-12-12T05:24:30.342Z,102545.73
2018-12-12T05:27:33.773Z,102549.16
2018-12-12T05:30:37.160Z,102544.20
2018-12-12T05:33:40.457Z,102549.75
2018-12-12T05:36:43.643Z,102556.48
2018-12-12T05:39:46.839Z,102563.59
2018-12-12T05:42:49.999Z,102564.91
2018-12-12T05:45:53.359Z,102573.66
2018-12-12T05:48:57.725Z,102573.49
2018-12-12T05:52:00.936Z,102573.91
2018-12-12T05:55:04.338Z,102571.61
2018-12-12T05:58:07.533Z,102571.41
2018-12-12T06:01:11.147Z,102582.13
2018-12-12T06:04:14.595Z,102582.55
2018-12-12T06:07:17.771Z,102588.55
2018-12-12T06:10:20.929Z,102593.63
2018-12-12T06:13:24.105Z,102599.41
2018-12-12T06:16:27.259Z,102598.63
2018-12-12T06:19:30.542Z,102596.94
2018-12-12T06:22:37.674Z,102595.92
2018-12-12T06:25:39.234Z,102599.31
2018-12-12T06:28:42.902Z,102596.85
2018-12-12T06:31:46.179Z,102612.63
2018-12-12T06:34:49.315Z,102613.93
2018-12-12T06:37:52.571Z,102605.61
2018-12-12T06:40:56.350Z,102612.50
2018-12-12T06:43:59.524Z,102619.45
2018-12-12T06:47:04.340Z,102624.94
2018-12-12T06:50:08.216Z,102623.34
2018-12-12T06:53:11.433Z,102631.48
2018-12-12T06:56:14.603Z,102630.87
2018-12-12T06:59:18.178Z,102633.20
2018-12-12T07:02:21.374Z,102639.67
2018-12-12T07:05:24.640Z,102644.87
2018-12-12T07:08:27.993Z,102649.84
2018-12-12T07:11:31.287Z,102650.86
2018-12-12T07:14:34.548Z,102649.00
2018-12-12T07:17:39.507Z,102654.58
2018-12-12T07:20:42.812Z,102651.00
2018-12-12T07:23:47.207Z,102649.45
2018-12-12T07:26:50.546Z,102646.91
2018-12-12T07:29:53.802Z,102643.34
2018-12-12T07:32:57.232Z,102651.02
2018-12-12T07:36:00.446Z,102649.58
2018-12-12T07:39:05.448Z,102654.05
2018-12-12T07:42:08.674Z,102656.17
2018-12-12T07:45:12.203Z,102659.16
2018-12-12T07:48:15.503Z,102664.56
2018-12-12T07:51:18.662Z,102671.97
2018-12-12T07:54:21.831Z,102675.63
2018-12-12T07:57:25.188Z,102679.23
2018-12-12T08:00:28.453Z,102682.12
2018-12-12T08:03:31.698Z,102679.94
2018-12-12T08:06:35.004Z,102679.08
2018-12-12T08:09:38.216Z,102696.27
2018-12-12T08:12:41.446Z,102688.23
2018-12-12T08:15:44.747Z,102692.03
2018-12-12T08:18:48.269Z,102696.86
2018-12-12T08:21:51.503Z,102704.45
2018-12-12T08:24:54.714Z,102691.13
2018-12-12T08:27:57.979Z,102698.20
2018-12-12T08:31:01.254Z,102704.51
2018-12-12T08:34:05.771Z,102707.37
2018-12-12T08:37:09.344Z,102706.85
2018-12-12T08:40:12.523Z,102707.40
2018-12-12T08:43:15.707Z,102709.23
2018-12-12T08:46:19.005Z,102704.25
2018-12-12T08:49:22.729Z,102709.27
2018-12-12T08:52:25.977Z,102712.23
2018-12-12T08:55:30.353Z,102716.50
2018-12-12T08:58:34.642Z,102710.39
2018-12-12T09:01:37.963Z,102712.61
2018-12-12T09:04:42.640Z,102715.73
2018-12-12T09:07:46.200Z,102715.66
2018-12-12T09:10:49.418Z,102724.29
2018-12-12T09:13:52.569Z,102731.77
2018-12-12T09:16:55.783Z,102725.27
2018-12-12T09:19:58.929Z,102721.94
2018-12-12T09:23:02.089Z,102725.09
2018-12-12T09:26:05.430Z,102729.56
2018-12-12T09:29:08.677Z,102724.29
2018-12-12T09:32:11.962Z,102726.92
2018-12-12T09:35:15.316Z,102735.30
2018-12-12T09:38:18.636Z,102734.45
2018-12-12T09:41:21.816Z,102742.96
2018-12-12T09:44:25.625Z,102745.37
2018-12-12T09:47:29.261Z,102746.97
2018-12-12T09:50:32.662Z,102744.59
2018-12-12T09:53:35.825Z,102749.75
2018-12-12T09:56:39.020Z,102750.78
2018-12-12T09:59:42.331Z,102749.05
2018-12-12T10:02:45.552Z,102754.74
2018-12-12T10:05:48.796Z,102749.75
2018-12-12T10:08:52.058Z,102742.27
2018-12-12T10:11:55.269Z,102750.44
2018-12-12T10:14:58.737Z,102755.58
2018-12-12T10:18:02.065Z,102751.69
2018-12-12T10:21:05.415Z,102765.37
2018-12-12T10:24:08.621Z,102765.91
2018-12-12T10:27:11.762Z,102770.05
2018-12-12T10:30:15.029Z,102765.82
2018-12-12T10:33:18.211Z,102765.74
2018-12-12T10:36:21.511Z,102770.31
2018-12-12T10:39:24.800Z,102767.74
2018-12-12T10:42:28.100Z,102760.90
2018-12-12T10:45:31.382Z,102757.75
2018-12-12T10:48:34.634Z,102758.52
2018-12-12T10:51:37.809Z,102756.11
2018-12-12T10:54:41.084Z,102758.00
2018-12-12T10:57:44.788Z,102752.09
2018-12-12T11:00:53.532Z,102755.85
2018-12-12T11:03:56.728Z,102750.19
2018-12-12T11:06:59.925Z,102749.66
2018-12-12T11:10:03.300Z,102748.13
2018-12-12T11:13:07.963Z,102756.06
2018-12-12T11:16:11.339Z,102753.62
2018-12-12T11:19:14.623Z,102758.36
2018-12-12T11:22:18.018Z,102757.80
2018-12-12T11:25:21.205Z,102759.67
2018-12-12T11:28:25.627Z,102760.47
2018-12-12T11:31:29.145Z,102754.84
2018-12-12T11:34:32.353Z,102749.27
2018-12-12T11:37:35.533Z,102755.11
2018-12-12T11:40:38.944Z,102760.45
2018-12-12T11:43:42.083Z,102756.36
2018-12-12T11:46:45.249Z,102751.83
2018-12-12T11:49:48.519Z,102749.30
2018-12-12T11:52:51.816Z,102755.05
2018-12-12T11:55:54.987Z,102762.51
2018-12-12T11:58:58.203Z,102760.06
2018-12-12T12:02:01.411Z,102766.34
2018-12-12T12:05:04.955Z,102762.19
2018-12-12T12:08:08.283Z,102768.75
2018-12-12T12:11:11.573Z,102763.28
2018-12-12T12:14:15.389Z,102772.32
2018-12-12T12:17:18.605Z,102772.74
2018-12-12T12:20:21.881Z,102776.77
2018-12-12T12:23:25.193Z,102777.20
2018-12-12T12:26:30.036Z,102780.97
2018-12-12T12:29:33.273Z,102781.80
2018-12-12T12:32:37.064Z,102779.63
2018-12-12T12:35:40.302Z,102784.77
2018-12-12T12:38:44.699Z,102790.86
2018-12-12T12:41:48.661Z,102787.98
2018-12-12T12:44:52.065Z,102792.58
2018-12-12T12:47:55.325Z,102781.61
2018-12-12T12:50:58.637Z,102790.16
2018-12-12T12:54:01.853Z,102789.21
2018-12-12T12:57:05.017Z,102788.56
2018-12-12T13:00:08.758Z,102787.24
2018-12-12T13:03:11.948Z,102786.95
2018-12-12T13:06:15.126Z,102786.22
2018-12-12T13:09:18.314Z,102788.39
2018-12-12T13:12:22.693Z,102786.05
2018-12-12T13:15:27.455Z,102783.05
2018-12-12T13:18:30.745Z,102777.11
2018-12-12T13:21:33.996Z,102772.80
2018-12-12T13:24:37.212Z,102772.09
2018-12-12T13:27:40.490Z,102771.55
2018-12-12T13:30:43.686Z,102768.91
2018-12-12T13:33:46.898Z,102765.28
2018-12-12T13:36:50.115Z,102768.42
2018-12-12T13:39:53.543Z,102771.97
2018-12-12T13:42:56.787Z,102778.17
2018-12-12T13:45:59.963Z,102777.08
2018-12-12T13:49:03.210Z,102772.16
2018-12-12T13:52:06.417Z,102773.03
2018-12-12T13:55:09.757Z,102769.41
2018-12-12T13:58:13.079Z,102770.19
2018-12-12T14:01:16.399Z,102775.41
2018-12-12T14:04:22.656Z,102767.96
2018-12-12T14:07:25.187Z,102767.45
2018-12-12T14:10:28.369Z,102763.22
2018-12-12T14:13:31.607Z,102770.00
2018-12-12T14:16:34.863Z,102769.97
2018-12-12T14:19:38.023Z,102767.93
2018-12-12T14:22:41.327Z,102761.31
2018-12-12T14:25:44.613Z,102766.01
2018-12-12T14:28:47.783Z,102769.00
2018-12-12T14:31:51.057Z,102769.13
2018-12-12T14:34:54.295Z,102773.34
2018-12-12T14:37:57.708Z,102779.09
2018-12-12T14:41:00.941Z,102778.30
2018-12-12T14:44:05.021Z,102776.54
2018-12-12T14:47:08.251Z,102780.67
2018-12-12T14:50:11.575Z,102780.90
2018-12-12T14:53:14.812Z,102782.05
2018-12-12T14:56:18.142Z,102787.61
2018-12-12T14:59:21.356Z,102789.55
2018-12-12T15:02:24.574Z,102789.93
2018-12-12T15:05:27.796Z,102781.18
2018-12-12T15:08:31.050Z,102790.20
2018-12-12T15:11:34.466Z,102789.13
2018-12-12T15:14:37.697Z,102787.30
2018-12-12T15:17:40.898Z,102786.11
2018-12-12T15:20:44.199Z,102789.55
2018-12-12T15:23:47.383Z,102784.14
2018-12-12T15:26:50.664Z,102785.11
2018-12-12T15:29:54.128Z,102793.91
2018-12-12T15:32:57.716Z,102793.09
2018-12-12T15:36:01.961Z,102795.86
2018-12-12T15:39:08.019Z,102792.33
2018-12-12T15:42:11.368Z,102800.34
2018-12-12T15:45:14.740Z,102800.86
2018-12-12T15:48:18.284Z,102794.51
2018-12-12T15:51:21.576Z,102792.39
2018-12-12T15:54:24.926Z,102791.63
2018-12-12T15:57:28.207Z,102794.72
2018-12-12T16:00:32.506Z,102798.33
2018-12-12T16:03:35.863Z,102795.76
2018-12-12T16:06:39.200Z,102792.05
2018-12-12T16:09:42.569Z,102794.78
2018-12-12T16:12:45.810Z,102790.70
2018-12-12T16:15:49.343Z,102791.66
2018-12-12T16:18:53.837Z,102791.66
2018-12-12T16:21:57.100Z,102790.80
2018-12-12T16:25:00.386Z,102783.72
2018-12-12T16:28:03.765Z,102787.50
2018-12-12T16:31:07.040Z,102788.06
2018-12-12T16:34:10.415Z,102785.66
2018-12-12T16:37:13.674Z,102792.19
2018-12-12T16:40:16.971Z,102789.66
2018-12-12T16:43:20.265Z,102792.67
2018-12-12T16:46:24.512Z,102791.04
2018-12-12T16:49:27.855Z,102790.59
2018-12-12T16:52:31.327Z,102786.84
2018-12-12T16:55:34.826Z,102783.52
2018-12-12T16:58:38.209Z,102795.73
2018-12-12T17:01:41.419Z,102795.79
2018-12-12T17:04:44.722Z,102799.13
2018-12-12T17:07:48.087Z,102794.16
2018-12-12T17:10:52.244Z,102798.36
2018-12-12T17:13:55.439Z,102797.39
2018-12-12T17:16:58.741Z,102796.14
2018-12-12T17:20:02.042Z,102800.58
2018-12-12T17:23:06.215Z,102806.93
2018-12-12T17:26:09.491Z,102801.62
2018-12-12T17:29:12.762Z,102799.19
2018-12-12T17:32:16.218Z,102799.77
2018-12-12T17:35:19.598Z,102808.44
2018-12-12T17:38:22.854Z,102807.77
2018-12-12T17:41:26.167Z,102811.45
2018-12-12T17:44:29.368Z,102813.94
2018-12-12T17:47:32.717Z,102807.09
2018-12-12T17:50:36.038Z,102816.65
2018-12-12T17:53:39.509Z,102812.63
2018-12-12T17:56:42.864Z,102810.77
2018-12-12T17:59:46.163Z,102806.94
2018-12-12T18:02:49.755Z,102810.10
2018-12-12T18:05:53.155Z,102808.22
2018-12-12T18:08:56.430Z,102803.22
2018-12-12T18:11:59.657Z,102804.72
2018-12-12T18:15:02.954Z,102802.59
2018-12-12T18:18:06.394Z,102807.04
2018-12-12T18:21:09.796Z,102806.59
2018-12-12T18:24:13.146Z,102810.91
2018-12-12T18:27:16.403Z,102813.28
2018-12-12T18:30:20.211Z,102821.53
2018-12-12T18:33:23.559Z,102812.92
2018-12-12T18:36:27.025Z,102812.77
2018-12-12T18:39:30.349Z,102808.48
2018-12-12T18:42:33.797Z,102808.41
2018-12-12T18:45:37.102Z,102803.78
2018-12-12T18:48:40.459Z,102811.08
2018-12-12T18:51:43.710Z,102807.39
2018-12-12T18:54:47.208Z,102807.84
2018-12-12T18:57:51.079Z,102806.83
2018-12-12T19:00:54.381Z,102801.56
2018-12-12T19:03:58.277Z,102811.04
2018-12-12T19:07:01.493Z,102810.66
2018-12-12T19:10:05.517Z,102811.49
2018-12-12T19:13:08.704Z,102817.25
2018-12-12T19:16:12.075Z,102816.42
2018-12-12T19:19:16.561Z,102822.82
2018-12-12T19:22:21.276Z,102819.24
2018-12-12T19:25:24.679Z,102817.47
2018-12-12T19:28:28.074Z,102819.84
2018-12-12T19:31:31.459Z,102827.00
2018-12-12T19:34:34.865Z,102832.61
2018-12-12T19:37:38.141Z,102829.33
2018-12-12T19:40:41.569Z,102827.94
2018-12-12T19:43:45.045Z,102826.70
2018-12-12T19:46:48.610Z,102834.00
2018-12-12T19:49:51.995Z,102836.22
2018-12-12T19:52:55.395Z,102835.47
2018-12-12T19:55:58.660Z,102842.02
2018-12-12T19:59:03.249Z,102842.58
2018-12-12T20:02:06.676Z,102850.03
2018-12-12T20:05:10.121Z,102846.08
2018-12-12T20:08:13.548Z,102845.59
2018-12-12T20:11:17.076Z,102849.81
2018-12-12T20:14:20.942Z,102852.56
2018-12-12T20:17:24.524Z,102852.14
2018-12-12T20:20:28.076Z,102847.28
2018-12-12T20:23:31.510Z,102848.27
2018-12-12T20:26:34.911Z,102853.72
2018-12-12T20:29:38.385Z,102846.45
2018-12-12T20:32:41.782Z,102855.94
2018-12-12T20:35:48.251Z,102850.59
2018-12-12T20:38:50.837Z,102854.29
2018-12-12T20:41:54.259Z,102852.10
2018-12-12T20:44:57.950Z,102858.35
2018-12-12T20:48:01.473Z,102857.82
2018-12-12T20:51:04.906Z,102853.87
2018-12-12T20:54:08.408Z,102858.01
2018-12-12T20:57:12.033Z,102855.97
2018-12-12T21:00:15.440Z,102858.31
2018-12-12T21:03:18.799Z,102852.63
2018-12-12T21:06:22.118Z,102852.10
2018-12-12T21:09:25.447Z,102853.98
2018-12-12T21:12:28.757Z,102853.11
2018-12-12T21:15:32.079Z,102855.30
2018-12-12T21:18:35.338Z,102851.20
2018-12-12T21:21:39.358Z,102846.48
2018-12-12T21:24:42.742Z,102844.19
2018-12-12T21:27:47.225Z,102850.03
2018-12-12T21:30:50.769Z,102853.69
2018-12-12T21:33:54.141Z,102846.27
2018-12-12T21:36:57.415Z,102847.47
2018-12-12T21:40:00.678Z,102839.16
2018-12-12T21:43:03.925Z,102841.98
2018-12-12T21:46:07.206Z,102838.95
2018-12-12T21:49:10.641Z,102842.05
2018-12-12T21:52:14.076Z,102837.83
2018-12-12T21:55:18.249Z,102836.28
2018-12-12T21:58:21.724Z,102838.92
2018-12-12T22:01:25.019Z,102838.66
2018-12-12T22:04:28.359Z,102836.03
2018-12-12T22:07:31.684Z,102839.00
2018-12-12T22:10:34.928Z,102837.09
2018-12-12T22:13:38.207Z,102843.00
2018-12-12T22:16:41.506Z,102841.64
2018-12-12T22:19:44.779Z,102841.98
2018-12-12T22:22:48.178Z,102841.08
2018-12-12T22:25:51.966Z,102844.35
2018-12-12T22:28:55.250Z,102840.02
2018-12-12T22:31:58.539Z,102849.12
2018-12-12T22:35:01.740Z,102854.77
2018-12-12T22:38:04.894Z,102851.16
2018-12-12T22:41:08.721Z,102845.66
2018-12-12T22:44:11.925Z,102856.91
2018-12-12T22:47:15.279Z,102855.25
2018-12-12T22:50:18.510Z,102856.61
2018-12-12T22:53:21.739Z,102859.46
2018-12-12T22:56:25.002Z,102858.79
2018-12-12T22:59:28.247Z,102858.70
2018-12-12T23:02:31.537Z,102857.50
2018-12-12T23:05:34.810Z,102851.15
2018-12-12T23:08:38.096Z,102847.86
2018-12-12T23:11:41.448Z,102843.58
2018-12-12T23:14:44.675Z,102845.64
2018-12-12T23:17:47.998Z,102844.90
2018-12-12T23:20:51.361Z,102842.68
2018-12-12T23:23:54.872Z,102846.44
2018-12-12T23:26:58.178Z,102841.80
2018-12-12T23:30:01.482Z,102831.73
2018-12-12T23:33:04.908Z,102833.13
2018-12-12T23:36:11.077Z,102834.86
2018-12-12T23:39:14.329Z,102842.25
2018-12-12T23:42:17.594Z,102830.98
2018-12-12T23:45:21.398Z,102828.96
2018-12-12T23:48:25.200Z,102828.16
2018-12-12T23:51:28.591Z,102826.20
2018-12-12T23:54:32.407Z,102822.40
2018-12-12T23:57:35.961Z,102819.16
